createdAt,value
2023-07-30T00:00:57.643Z,17.30
2023-07-30T00:03:24.717Z,17.20
2023-07-30T00:08:19.019Z,17.20
2023-07-30T00:10:45.899Z,17.10
2023-07-30T00:13:12.821Z,17.10
2023-07-30T00:15:39.775Z,17.10
2023-07-30T00:18:06.848Z,17.10
2023-07-30T00:20:35.628Z,17.10
2023-07-30T00:23:02.591Z,17.10
2023-07-30T00:27:56.788Z,17.10
2023-07-30T00:30:23.731Z,17.10
2023-07-30T00:32:50.660Z,17.10
2023-07-30T00:35:17.722Z,17.10
2023-07-30T00:37:46.585Z,17.10
2023-07-30T00:40:13.652Z,17.10
2023-07-30T00:42:40.599Z,17.10
2023-07-30T00:45:07.867Z,17.10
2023-07-30T00:47:34.841Z,17.10
2023-07-30T00:50:02.539Z,17.10
2023-07-30T00:52:30.135Z,17.10
2023-07-30T00:57:25.786Z,17.10
2023-07-30T00:59:53.113Z,17.10
2023-07-30T01:04:47.349Z,17.20
2023-07-30T01:07:14.336Z,17.20
2023-07-30T01:09:41.351Z,17.20
2023-07-30T01:12:08.569Z,17.20
2023-07-30T01:14:39.100Z,17.30
2023-07-30T01:17:06.128Z,17.20
2023-07-30T01:22:02.648Z,17.20
2023-07-30T01:24:29.556Z,17.20
2023-07-30T01:26:58.020Z,17.20
2023-07-30T01:29:37.174Z,17.20
2023-07-30T01:32:09.477Z,17.20
2023-07-30T01:34:37.190Z,17.20
2023-07-30T01:37:04.312Z,17.20
2023-07-30T01:39:31.286Z,17.20
2023-07-30T01:44:25.488Z,17.20
2023-07-30T01:49:19.780Z,17.20
2023-07-30T01:51:47.217Z,17.20
2023-07-30T01:54:14.125Z,17.20
2023-07-30T01:56:41.104Z,17.20
2023-07-30T01:59:08.044Z,17.20
2023-07-30T02:01:38.240Z,17.20
2023-07-30T02:04:05.493Z,17.20
2023-07-30T02:13:54.291Z,17.20
2023-07-30T02:16:21.264Z,17.20
2023-07-30T02:18:48.646Z,17.20
2023-07-30T02:21:15.547Z,17.10
2023-07-30T02:23:42.408Z,17.20
2023-07-30T02:26:09.393Z,17.20
2023-07-30T02:28:36.391Z,17.20
2023-07-30T02:31:03.325Z,17.20
2023-07-30T02:33:30.259Z,17.20
2023-07-30T02:35:57.159Z,17.20
2023-07-30T02:38:24.047Z,17.20
2023-07-30T02:43:19.165Z,17.10
2023-07-30T02:45:48.483Z,17.10
2023-07-30T02:48:15.488Z,17.20
2023-07-30T02:50:44.988Z,17.20
2023-07-30T02:53:12.620Z,17.20
2023-07-30T02:55:39.608Z,17.20
2023-07-30T02:58:06.627Z,17.20
2023-07-30T03:00:33.523Z,17.20
2023-07-30T03:03:00.682Z,17.20
2023-07-30T03:05:28.650Z,17.10
2023-07-30T03:07:55.635Z,17.10
2023-07-30T03:10:22.599Z,17.10
2023-07-30T03:12:49.516Z,17.20
2023-07-30T03:15:16.596Z,17.20
2023-07-30T03:17:43.589Z,17.20
2023-07-30T03:20:10.738Z,17.20
2023-07-30T03:22:37.647Z,17.20
2023-07-30T03:25:07.053Z,17.20
2023-07-30T03:27:34.009Z,17.20
2023-07-30T03:30:00.924Z,17.20
2023-07-30T03:32:27.843Z,17.20
2023-07-30T03:34:54.840Z,17.20
2023-07-30T03:39:49.016Z,17.20
2023-07-30T03:42:16.005Z,17.20
2023-07-30T03:44:42.866Z,17.20
2023-07-30T03:49:37.026Z,17.20
2023-07-30T03:52:04.088Z,17.20
2023-07-30T03:54:33.165Z,17.20
2023-07-30T03:57:00.088Z,17.20
2023-07-30T03:59:27.178Z,17.20
2023-07-30T04:04:21.510Z,17.20
2023-07-30T04:06:48.438Z,17.20
2023-07-30T04:09:15.306Z,17.10
2023-07-30T04:11:42.230Z,17.20
2023-07-30T04:14:09.285Z,17.20
2023-07-30T04:16:36.447Z,17.20
2023-07-30T04:19:03.418Z,17.20
2023-07-30T04:21:30.381Z,17.10
2023-07-30T04:26:24.651Z,17.20
2023-07-30T04:31:18.942Z,17.20
2023-07-30T04:33:45.956Z,17.20
2023-07-30T04:38:40.174Z,17.20
2023-07-30T04:46:05.017Z,17.20
2023-07-30T04:48:31.937Z,17.20
2023-07-30T04:50:58.906Z,17.20
2023-07-30T04:53:25.921Z,17.20
2023-07-30T04:55:59.037Z,17.30
2023-07-30T04:58:26.127Z,17.30
2023-07-30T05:00:53.098Z,17.30
2023-07-30T05:03:20.149Z,17.30
2023-07-30T05:05:47.222Z,17.30
2023-07-30T05:08:16.608Z,17.40
2023-07-30T05:13:10.945Z,17.30
2023-07-30T05:15:37.927Z,17.40
2023-07-30T05:18:04.829Z,17.30
2023-07-30T05:20:31.770Z,17.30
2023-07-30T05:22:58.742Z,17.40
2023-07-30T05:25:25.626Z,17.40
2023-07-30T05:30:19.869Z,17.40
2023-07-30T05:32:49.591Z,17.50
2023-07-30T05:35:16.755Z,17.50
2023-07-30T05:37:43.766Z,17.50
2023-07-30T05:40:10.817Z,17.50
2023-07-30T05:42:37.897Z,17.50
2023-07-30T05:45:05.042Z,17.50
2023-07-30T05:47:36.557Z,17.60
2023-07-30T05:52:33.091Z,17.60
2023-07-30T05:55:02.943Z,17.60
2023-07-30T05:57:30.528Z,17.60
2023-07-30T06:02:25.996Z,17.70
2023-07-30T06:07:22.325Z,17.70
2023-07-30T06:09:49.419Z,17.80
2023-07-30T06:12:16.311Z,17.80
2023-07-30T06:14:43.274Z,17.80
2023-07-30T06:17:10.374Z,17.80
2023-07-30T06:19:37.368Z,17.90
2023-07-30T06:22:04.477Z,17.90
2023-07-30T06:27:15.947Z,17.90
2023-07-30T06:29:42.855Z,17.90
2023-07-30T06:32:09.831Z,18.00
2023-07-30T06:34:36.760Z,18.00
2023-07-30T06:37:04.017Z,18.00
2023-07-30T06:39:31.230Z,18.00
2023-07-30T06:41:58.133Z,18.10
2023-07-30T06:44:26.799Z,18.10
2023-07-30T06:46:53.953Z,18.10
2023-07-30T06:49:24.272Z,18.10
2023-07-30T06:51:51.233Z,18.10
2023-07-30T06:54:18.504Z,18.10
2023-07-30T06:56:47.089Z,18.10
2023-07-30T06:59:14.202Z,18.10
2023-07-30T07:01:43.823Z,18.10
2023-07-30T07:04:10.865Z,18.10
2023-07-30T07:06:37.807Z,18.20
2023-07-30T07:11:35.785Z,18.10
2023-07-30T07:14:04.375Z,18.20
2023-07-30T07:16:31.640Z,18.20
2023-07-30T07:18:58.706Z,18.10
2023-07-30T07:21:27.794Z,18.20
2023-07-30T07:23:54.866Z,18.20
2023-07-30T07:26:21.806Z,18.20
2023-07-30T07:28:48.779Z,18.20
2023-07-30T07:31:15.777Z,18.20
2023-07-30T07:33:45.071Z,18.30
2023-07-30T07:36:12.089Z,18.30
2023-07-30T07:38:39.348Z,18.20
2023-07-30T07:41:06.617Z,18.20
2023-07-30T07:43:33.549Z,18.20
2023-07-30T07:46:02.962Z,18.20
2023-07-30T07:48:31.100Z,18.20
2023-07-30T07:50:57.974Z,18.10
2023-07-30T07:53:24.889Z,18.10
2023-07-30T07:55:51.826Z,18.10
2023-07-30T07:58:18.720Z,18.20
2023-07-30T08:03:12.980Z,18.30
2023-07-30T08:05:39.915Z,18.30
2023-07-30T08:08:06.851Z,18.30
2023-07-30T08:15:28.327Z,18.50
2023-07-30T08:17:55.591Z,18.50
2023-07-30T08:22:50.274Z,18.50
2023-07-30T08:25:17.237Z,18.50
2023-07-30T08:27:44.169Z,18.70
2023-07-30T08:30:11.395Z,18.60
2023-07-30T08:32:42.738Z,18.70
2023-07-30T08:35:09.820Z,18.70
2023-07-30T08:37:36.838Z,18.70
2023-07-30T08:40:04.030Z,18.80
2023-07-30T08:44:58.394Z,18.80
2023-07-30T08:47:25.273Z,18.80
2023-07-30T08:49:52.342Z,18.80
2023-07-30T08:52:19.675Z,18.80
2023-07-30T08:54:47.724Z,18.90
2023-07-30T08:57:17.552Z,19.00
2023-07-30T08:59:48.832Z,19.00
2023-07-30T09:02:19.535Z,19.00
2023-07-30T09:04:49.298Z,19.10
2023-07-30T09:07:17.203Z,19.10
2023-07-30T09:09:44.389Z,19.10
2023-07-30T09:17:06.011Z,19.30
2023-07-30T09:19:36.847Z,19.30
2023-07-30T09:24:31.033Z,19.50
2023-07-30T09:27:02.524Z,19.60
2023-07-30T09:29:29.615Z,19.60
2023-07-30T09:31:56.668Z,19.60
2023-07-30T09:34:25.186Z,19.70
2023-07-30T09:36:53.226Z,19.90
2023-07-30T09:39:20.758Z,19.80
2023-07-30T09:41:47.860Z,19.80
2023-07-30T09:44:17.699Z,19.70
2023-07-30T09:46:45.396Z,19.70
2023-07-30T09:49:15.908Z,19.70
2023-07-30T09:51:43.130Z,19.70
2023-07-30T09:54:10.738Z,19.60
2023-07-30T09:56:38.240Z,19.60
2023-07-30T09:59:05.753Z,19.60
2023-07-30T10:01:34.150Z,19.70
2023-07-30T10:04:04.369Z,19.80
2023-07-30T10:06:32.283Z,19.90
2023-07-30T10:09:00.328Z,19.80
2023-07-30T10:11:27.901Z,19.80
2023-07-30T10:13:55.274Z,19.70
2023-07-30T10:16:27.656Z,19.70
2023-07-30T10:18:57.443Z,19.70
2023-07-30T10:21:25.465Z,19.70
2023-07-30T10:26:27.341Z,19.80
2023-07-30T10:29:11.078Z,19.90
2023-07-30T10:34:08.108Z,19.90
2023-07-30T10:41:29.727Z,19.90
2023-07-30T10:46:24.057Z,19.90
2023-07-30T10:48:53.529Z,19.90
2023-07-30T10:51:21.698Z,19.90
2023-07-30T10:58:43.727Z,19.70
2023-07-30T11:01:13.402Z,19.60
2023-07-30T11:03:40.544Z,19.80
2023-07-30T11:06:09.314Z,19.90
2023-07-30T11:08:40.178Z,20.00
2023-07-30T11:11:08.010Z,19.90
2023-07-30T11:13:42.290Z,19.80
2023-07-30T11:16:12.029Z,19.90
2023-07-30T11:23:34.516Z,20.30
2023-07-30T11:26:05.246Z,20.60
2023-07-30T11:31:05.296Z,20.50
2023-07-30T11:33:32.361Z,20.30
2023-07-30T11:38:27.177Z,20.50
2023-07-30T11:43:22.019Z,20.60
2023-07-30T11:45:49.061Z,20.70
2023-07-30T11:48:16.017Z,20.60
2023-07-30T11:50:49.994Z,20.70
2023-07-30T11:53:17.055Z,20.60
2023-07-30T11:55:44.809Z,20.50
2023-07-30T11:58:12.325Z,20.50
2023-07-30T12:00:42.785Z,20.50
2023-07-30T12:03:13.979Z,20.40
2023-07-30T12:05:41.392Z,20.40
2023-07-30T12:08:14.218Z,20.30
2023-07-30T12:24:33.790Z,20.00
2023-07-30T12:34:24.895Z,19.80
2023-07-30T12:36:51.976Z,19.80
2023-07-30T12:39:19.012Z,19.80
2023-07-30T12:41:46.028Z,19.80
2023-07-30T12:51:35.329Z,20.10
2023-07-30T12:56:29.688Z,20.40
2023-07-30T13:31:01.391Z,20.60
2023-07-30T13:33:28.847Z,20.50
2023-07-30T13:35:56.215Z,20.50
2023-07-30T13:38:24.001Z,20.60
2023-07-30T13:40:50.920Z,20.70
2023-07-30T13:43:18.056Z,20.70
2023-07-30T13:45:45.269Z,20.80
2023-07-30T13:48:12.722Z,20.80
2023-07-30T13:50:39.951Z,21.00
2023-07-30T13:53:07.384Z,21.10
2023-07-30T13:55:35.068Z,21.20
2023-07-30T13:58:02.510Z,21.20
2023-07-30T14:05:24.987Z,21.20
2023-07-30T14:07:55.352Z,21.30
2023-07-30T14:10:22.610Z,21.30
2023-07-30T14:12:50.079Z,21.20
2023-07-30T14:17:45.283Z,21.20
2023-07-30T14:20:12.679Z,21.20
2023-07-30T14:22:39.879Z,21.40
2023-07-30T14:25:07.501Z,21.70
2023-07-30T14:27:34.639Z,21.70
2023-07-30T14:30:01.656Z,21.50
2023-07-30T14:32:28.797Z,21.50
2023-07-30T14:34:55.774Z,21.50
2023-07-30T14:37:22.736Z,21.40
2023-07-30T14:42:17.211Z,21.40
2023-07-30T14:47:12.164Z,21.50
2023-07-30T14:49:40.032Z,21.30
2023-07-30T14:54:35.297Z,21.00
2023-07-30T14:57:02.337Z,20.90
2023-07-30T14:59:29.570Z,20.90
2023-07-30T15:01:56.877Z,20.80
2023-07-30T15:04:24.841Z,20.80
2023-07-30T15:06:51.970Z,20.80
2023-07-30T15:16:41.708Z,20.90
2023-07-30T15:24:06.161Z,21.00
2023-07-30T15:31:29.733Z,20.60
2023-07-30T15:36:24.834Z,20.80
2023-07-30T15:48:49.245Z,21.00
2023-07-30T15:56:12.257Z,20.90
2023-07-30T16:01:11.292Z,20.90
2023-07-30T16:03:39.439Z,20.90
2023-07-30T16:08:38.539Z,20.80
2023-07-30T16:11:08.502Z,20.80
2023-07-30T16:13:35.558Z,20.70
2023-07-30T16:16:29.619Z,20.80
2023-07-30T16:18:58.556Z,20.70
2023-07-30T16:28:49.015Z,20.60
2023-07-30T16:31:16.713Z,20.70
2023-07-30T16:33:44.326Z,20.60
2023-07-30T16:36:11.554Z,20.60
2023-07-30T16:38:38.705Z,20.60
2023-07-30T16:41:05.916Z,20.60
2023-07-30T16:46:03.195Z,20.70
2023-07-30T16:48:31.500Z,20.80
2023-07-30T16:50:58.702Z,20.70
2023-07-30T16:53:26.259Z,20.70
2023-07-30T17:00:51.000Z,20.40
2023-07-30T17:03:18.692Z,20.50
2023-07-30T17:20:38.036Z,20.20
2023-07-30T17:23:05.448Z,20.20
2023-07-30T17:30:27.862Z,20.10
2023-07-30T17:32:55.379Z,20.10
2023-07-30T17:35:22.407Z,20.10
2023-07-30T17:42:44.901Z,20.10
2023-07-30T17:45:12.414Z,20.00
2023-07-30T17:47:39.594Z,20.00
2023-07-30T17:55:02.401Z,20.00
2023-07-30T17:59:57.350Z,19.90
2023-07-30T18:02:24.652Z,19.80
2023-07-30T18:22:07.321Z,19.20
2023-07-30T18:29:34.555Z,19.00
2023-07-30T18:37:06.726Z,18.80
2023-07-30T18:44:30.849Z,18.70
2023-07-30T18:49:29.592Z,19.90
2023-07-30T19:01:47.704Z,18.40
2023-07-30T19:31:21.547Z,17.90
2023-07-30T19:33:49.068Z,17.90
2023-07-30T19:43:54.494Z,17.70
2023-07-30T19:46:21.864Z,17.70
2023-07-30T19:48:49.628Z,17.80
2023-07-30T19:51:17.853Z,17.80
2023-07-30T20:15:59.808Z,17.30
2023-07-30T20:18:28.976Z,17.30
2023-07-30T20:30:50.873Z,17.30
2023-07-30T20:43:09.174Z,17.20
2023-07-30T20:50:31.815Z,17.10
2023-07-30T20:57:56.421Z,17.00
2023-07-30T21:02:50.962Z,17.00
2023-07-30T21:05:18.154Z,17.10
2023-07-30T21:07:45.127Z,17.20
2023-07-30T21:10:12.126Z,17.30
2023-07-30T21:12:41.239Z,17.30
2023-07-30T21:34:51.191Z,17.60
2023-07-30T21:42:13.021Z,18.00
2023-07-30T21:49:35.795Z,18.10
2023-07-30T22:09:14.705Z,17.90
2023-07-30T22:23:59.309Z,17.40
2023-07-30T23:05:45.396Z,16.60
2023-07-30T23:13:09.256Z,16.40
2023-07-30T23:20:33.167Z,16.40
2023-07-30T23:23:00.204Z,16.50
2023-07-30T23:25:27.203Z,16.30
